createdAt,value
2023-04-19T00:01:07.659Z,0.0
2023-04-19T00:05:54.008Z,0.0
2023-04-19T00:11:24.455Z,0.0
2023-04-19T00:16:06.889Z,0.0
2023-04-19T00:21:13.287Z,0.0
2023-04-19T00:26:19.644Z,0.0
2023-04-19T00:31:26.136Z,0.0
2023-04-19T00:36:22.462Z,0.0
2023-04-19T00:41:38.872Z,0.0
2023-04-19T00:46:45.379Z,0.0
2023-04-19T00:51:51.625Z,0.0
2023-04-19T00:56:58.034Z,0.0
2023-04-19T01:02:04.689Z,0.0
2023-04-19T01:07:11.038Z,0.0
2023-04-19T01:12:17.442Z,0.0
2023-04-19T01:17:23.889Z,0.0
2023-04-19T01:22:30.220Z,0.0
2023-04-19T01:27:36.586Z,0.0
2023-04-19T01:32:44.712Z,0.0
2023-04-19T01:37:51.069Z,0.0
2023-04-19T01:43:01.064Z,0.0
2023-04-19T01:48:07.576Z,0.0
2023-04-19T01:53:13.846Z,0.0
2023-04-19T01:58:20.227Z,0.0
2023-04-19T02:03:26.913Z,0.0
2023-04-19T02:08:33.059Z,0.0
2023-04-19T02:13:39.444Z,0.0
2023-04-19T02:18:45.966Z,0.0
2023-04-19T02:23:52.336Z,0.0
2023-04-19T02:28:58.734Z,0.0
2023-04-19T02:34:05.120Z,0.0
2023-04-19T02:39:11.523Z,0.0
2023-04-19T02:44:18.130Z,0.0
2023-04-19T02:49:24.340Z,0.0
2023-04-19T02:54:51.326Z,0.0
2023-04-19T02:59:37.641Z,0.0
2023-04-19T03:05:56.294Z,0.0
2023-04-19T03:09:50.520Z,0.0
2023-04-19T03:14:58.474Z,0.0
2023-04-19T03:20:04.876Z,0.0
2023-04-19T03:25:01.318Z,0.0
2023-04-19T03:30:17.791Z,0.0
2023-04-19T03:35:25.307Z,0.0
2023-04-19T03:40:31.808Z,0.0
2023-04-19T03:45:28.174Z,0.0
2023-04-19T03:50:44.736Z,0.0
2023-04-19T03:55:51.148Z,0.0
2023-04-19T04:00:57.514Z,0.0
2023-04-19T04:06:03.895Z,4.0
2023-04-19T04:11:10.341Z,8.0
2023-04-19T04:16:16.664Z,20.0
2023-04-19T04:21:23.159Z,40.0
2023-04-19T04:26:29.585Z,80.0
2023-04-19T04:31:37.648Z,136.0
2023-04-19T04:36:43.944Z,216.0
2023-04-19T04:42:35.531Z,348.0
2023-04-19T04:47:42.943Z,492.0
2023-04-19T04:52:49.312Z,700.0
2023-04-19T04:57:55.705Z,952.0
2023-04-19T05:03:02.155Z,1200.0
2023-04-19T05:07:58.457Z,1388.0
2023-04-19T05:13:16.449Z,1592.0
2023-04-19T05:18:22.800Z,1736.0
2023-04-19T05:23:29.747Z,1864.0
2023-04-19T05:28:36.369Z,1976.0
2023-04-19T05:33:32.692Z,2096.0
2023-04-19T05:38:49.120Z,2240.0
2023-04-19T05:44:01.070Z,2420.0
2023-04-19T05:49:07.422Z,2684.0
2023-04-19T05:54:35.380Z,2956.0
2023-04-19T05:59:17.844Z,3152.0
2023-04-19T06:04:28.362Z,3280.0
2023-04-19T06:09:30.573Z,3456.0
2023-04-19T06:14:38.605Z,3572.0
2023-04-19T06:19:48.918Z,3712.0
2023-04-19T06:24:52.862Z,3700.0
2023-04-19T06:29:59.257Z,3804.0
2023-04-19T06:35:09.713Z,4132.0
2023-04-19T06:40:16.088Z,4672.0
2023-04-19T06:45:20.077Z,5228.0
2023-04-19T06:50:30.446Z,5704.0
2023-04-19T06:55:34.370Z,7748.0
2023-04-19T07:00:40.846Z,10908.0
2023-04-19T07:05:48.749Z,13004.0
2023-04-19T07:10:59.114Z,14112.0
2023-04-19T07:16:02.296Z,15808.0
2023-04-19T07:21:08.509Z,17664.0
2023-04-19T07:26:18.911Z,19264.0
2023-04-19T07:36:33.640Z,20608.0
2023-04-19T07:41:36.381Z,22304.0
2023-04-19T07:46:42.309Z,24192.0
2023-04-19T07:51:50.294Z,25472.0
2023-04-19T07:56:56.645Z,28032.0
2023-04-19T08:02:03.186Z,28864.0
2023-04-19T08:07:13.592Z,29664.0
2023-04-19T08:13:04.980Z,32320.0
2023-04-19T08:17:26.944Z,34080.0
2023-04-19T08:22:34.348Z,37088.0
2023-04-19T08:27:36.702Z,34496.0
2023-04-19T08:32:47.127Z,41088.0
2023-04-19T08:37:39.588Z,40960.0
2023-04-19T08:42:55.951Z,41248.0
2023-04-19T08:48:02.815Z,47776.0
2023-04-19T08:53:23.710Z,47104.0
2023-04-19T08:58:28.624Z,48832.0
2023-04-19T09:03:23.720Z,49984.0
2023-04-19T09:08:30.048Z,50944.0
2023-04-19T09:13:37.736Z,53088.0
2023-04-19T09:18:56.277Z,56096.0
2023-04-19T09:23:52.125Z,54880.0
2023-04-19T09:29:32.517Z,59968.0
2023-04-19T09:34:05.959Z,51104.0
2023-04-19T09:39:16.646Z,59456.0
2023-04-19T09:45:25.439Z,63680.0
2023-04-19T09:50:01.265Z,63392.0
2023-04-19T09:54:57.662Z,60992.0
2023-04-19T10:00:14.101Z,51296.0
2023-04-19T10:05:21.805Z,61856.0
2023-04-19T10:10:40.406Z,63360.0
2023-04-19T10:15:47.249Z,69408.0
2023-04-19T10:20:40.318Z,72096.0
2023-04-19T10:25:46.874Z,70496.0
2023-04-19T10:31:37.229Z,71968.0
2023-04-19T10:36:00.675Z,72064.0
2023-04-19T10:41:07.111Z,70848.0
2023-04-19T10:46:37.558Z,68864.0
2023-04-19T10:51:43.872Z,73056.0
2023-04-19T10:56:26.234Z,70144.0
2023-04-19T11:01:32.800Z,67296.0
2023-04-19T11:07:03.190Z,68288.0
2023-04-19T11:12:05.903Z,74496.0
2023-04-19T11:17:16.042Z,77568.0
2023-04-19T11:21:58.377Z,76896.0
2023-04-19T11:27:04.759Z,70912.0
2023-04-19T11:32:11.187Z,79200.0
2023-04-19T11:37:17.528Z,76960.0
2023-04-19T11:42:23.918Z,73568.0
2023-04-19T11:47:50.572Z,70080.0
2023-04-19T11:52:36.734Z,68192.0
2023-04-19T11:57:43.104Z,71872.0
2023-04-19T12:02:51.789Z,70528.0
2023-04-19T12:08:22.454Z,67648.0
2023-04-19T12:13:04.592Z,69792.0
2023-04-19T12:18:11.033Z,73696.0
2023-04-19T12:23:17.370Z,66912.0
2023-04-19T12:28:23.943Z,71744.0
2023-04-19T12:33:30.485Z,70272.0
2023-04-19T12:38:26.841Z,65888.0
2023-04-19T12:43:43.300Z,64992.0
2023-04-19T12:48:49.655Z,69184.0
2023-04-19T12:53:56.062Z,67968.0
2023-04-19T12:59:02.543Z,68000.0
2023-04-19T13:04:09.183Z,62464.0
2023-04-19T13:09:15.491Z,61824.0
2023-04-19T13:14:21.682Z,59104.0
2023-04-19T13:19:28.037Z,60160.0
2023-04-19T13:24:34.423Z,57280.0
2023-04-19T13:29:40.958Z,53664.0
2023-04-19T13:34:47.295Z,50080.0
2023-04-19T13:39:43.668Z,45088.0
2023-04-19T13:45:00.216Z,40384.0
2023-04-19T13:50:06.579Z,37216.0
2023-04-19T13:55:40.680Z,33824.0
2023-04-19T14:00:23.047Z,29504.0
2023-04-19T14:05:29.426Z,28608.0
2023-04-19T14:10:35.792Z,26272.0
2023-04-19T14:15:42.221Z,24512.0
2023-04-19T14:20:48.670Z,23328.0
2023-04-19T14:25:55.046Z,22528.0
2023-04-19T14:31:01.503Z,21568.0
2023-04-19T14:36:07.832Z,18016.0
2023-04-19T14:41:14.209Z,11512.0
2023-04-19T14:46:20.728Z,7240.0
2023-04-19T14:51:51.038Z,20800.0
2023-04-19T14:56:33.463Z,6276.0
2023-04-19T15:01:39.896Z,13104.0
2023-04-19T15:06:46.256Z,11216.0
2023-04-19T15:12:12.681Z,11044.0
2023-04-19T15:16:49.022Z,10252.0
2023-04-19T15:22:05.404Z,7512.0
2023-04-19T15:27:11.785Z,9032.0
2023-04-19T15:32:18.397Z,8148.0
2023-04-19T15:37:24.770Z,6000.0
2023-04-19T15:43:05.196Z,6268.0
2023-04-19T15:48:33.657Z,5488.0
2023-04-19T15:52:43.898Z,6252.0
2023-04-19T15:57:50.279Z,6532.0
2023-04-19T16:02:46.783Z,5932.0
2023-04-19T16:08:03.115Z,5536.0
2023-04-19T16:13:13.467Z,5648.0
2023-04-19T16:18:15.827Z,6848.0
2023-04-19T16:23:22.245Z,5252.0
2023-04-19T16:28:28.715Z,5140.0
2023-04-19T16:33:55.121Z,5368.0
2023-04-19T16:38:41.491Z,4912.0
2023-04-19T16:43:51.551Z,5184.0
2023-04-19T16:48:57.949Z,5044.0
2023-04-19T16:53:54.323Z,5004.0
2023-04-19T16:59:00.695Z,4664.0
2023-04-19T17:04:52.389Z,4288.0
2023-04-19T17:09:59.717Z,3928.0
2023-04-19T17:15:19.959Z,3464.0
2023-04-19T17:20:37.456Z,3188.0
2023-04-19T17:25:22.244Z,2872.0
2023-04-19T17:30:26.409Z,2780.0
2023-04-19T17:35:36.822Z,2448.0
2023-04-19T17:40:39.218Z,2120.0
2023-04-19T17:46:05.837Z,1904.0
2023-04-19T17:51:16.188Z,1676.0
2023-04-19T17:55:48.731Z,1452.0
2023-04-19T18:01:05.104Z,1240.0
2023-04-19T18:06:13.317Z,1048.0
2023-04-19T18:11:19.765Z,864.0
2023-04-19T18:16:46.232Z,684.0
2023-04-19T18:21:32.548Z,524.0
2023-04-19T18:26:59.214Z,380.0
2023-04-19T18:31:45.522Z,260.0
2023-04-19T18:36:41.859Z,164.0
2023-04-19T18:41:58.419Z,96.0
2023-04-19T18:46:54.711Z,48.0
2023-04-19T18:52:11.094Z,28.0
2023-04-19T18:57:22.566Z,12.0
2023-04-19T19:02:23.235Z,4.0
2023-04-19T19:07:35.783Z,4.0
2023-04-19T19:12:36.920Z,0.0
2023-04-19T19:17:43.587Z,0.0
2023-04-19T19:22:51.320Z,0.0
2023-04-19T19:28:21.320Z,0.0
2023-04-19T19:33:28.352Z,0.0
2023-04-19T19:38:11.862Z,0.0
2023-04-19T19:43:18.257Z,0.0
2023-04-19T19:48:25.469Z,0.0
2023-04-19T19:53:35.674Z,0.0
2023-04-19T19:58:49.705Z,0.0
2023-04-19T20:03:44.757Z,0.0
2023-04-19T20:09:15.162Z,0.0
2023-04-19T20:13:57.265Z,0.0
2023-04-19T20:19:03.637Z,0.0
2023-04-19T20:24:14.057Z,0.0
2023-04-19T20:29:16.548Z,0.0
2023-04-19T20:34:12.789Z,0.0
2023-04-19T20:39:33.219Z,0.0
2023-04-19T20:44:59.671Z,0.0
2023-04-19T20:49:41.971Z,0.0
2023-04-19T20:54:48.380Z,0.0
2023-04-19T20:59:56.958Z,0.0
2023-04-19T21:05:03.517Z,0.0
2023-04-19T21:10:33.910Z,0.0
2023-04-19T21:15:20.274Z,0.0
2023-04-19T21:20:12.655Z,0.0
2023-04-19T21:25:32.593Z,0.0
2023-04-19T21:30:38.959Z,0.0
2023-04-19T21:36:09.508Z,0.0
2023-04-19T21:40:51.900Z,0.0
2023-04-19T21:45:58.233Z,0.0
2023-04-19T21:51:18.650Z,0.0
2023-04-19T21:56:10.961Z,0.0
2023-04-19T22:01:17.607Z,0.0
2023-04-19T22:06:23.882Z,0.0
2023-04-19T22:11:34.273Z,0.0
2023-04-19T22:16:36.886Z,0.0
2023-04-19T22:21:43.261Z,0.0
2023-04-19T22:26:49.627Z,0.0
2023-04-19T22:31:56.025Z,0.0
2023-04-19T22:37:06.506Z,0.0
2023-04-19T22:42:32.879Z,0.0
2023-04-19T22:47:05.198Z,0.0
2023-04-19T22:52:11.617Z,0.0
2023-04-19T22:57:17.991Z,0.0
2023-04-19T23:02:24.415Z,0.0
2023-04-19T23:07:39.810Z,0.0
2023-04-19T23:12:47.238Z,0.0
2023-04-19T23:17:43.640Z,0.0
2023-04-19T23:22:50.006Z,0.0
2023-04-19T23:28:30.441Z,0.0
2023-04-19T23:34:12.891Z,0.0
2023-04-19T23:38:33.211Z,0.0
2023-04-19T23:43:25.741Z,0.0
2023-04-19T23:48:32.078Z,0.0
2023-04-19T23:53:39.140Z,0.0
2023-04-19T23:58:45.514Z,0.0
